sensor_id;sensor_type;location;lat;lon;timestamp;temperature;humidity
10431;DHT22;5262;59.958;17.726;2023-08-06T00:02:20;11.80;99.90
10431;DHT22;5262;59.958;17.726;2023-08-06T00:04:45;11.70;99.90
10431;DHT22;5262;59.958;17.726;2023-08-06T00:07:11;11.70;99.90
10431;DHT22;5262;59.958;17.726;2023-08-06T00:09:39;11.70;99.90
10431;DHT22;5262;59.958;17.726;2023-08-06T00:12:05;11.70;99.90
10431;DHT22;5262;59.958;17.726;2023-08-06T00:14:31;11.80;99.90
10431;DHT22;5262;59.958;17.726;2023-08-06T00:16:56;11.80;99.90
10431;DHT22;5262;59.958;17.726;2023-08-06T00:19:24;11.80;99.90
10431;DHT22;5262;59.958;17.726;2023-08-06T00:21:50;11.90;99.90
10431;DHT22;5262;59.958;17.726;2023-08-06T00:24:16;11.90;99.90
10431;DHT22;5262;59.958;17.726;2023-08-06T00:26:41;11.80;99.90
10431;DHT22;5262;59.958;17.726;2023-08-06T00:29:07;11.90;99.90
10431;DHT22;5262;59.958;17.726;2023-08-06T00:31:33;11.80;99.90
10431;DHT22;5262;59.958;17.726;2023-08-06T00:33:58;12.00;99.90
10431;DHT22;5262;59.958;17.726;2023-08-06T00:36:24;12.00;99.90
10431;DHT22;5262;59.958;17.726;2023-08-06T00:38:49;11.90;99.90
10431;DHT22;5262;59.958;17.726;2023-08-06T00:41:18;12.00;99.90
10431;DHT22;5262;59.958;17.726;2023-08-06T00:43:44;12.10;99.90
10431;DHT22;5262;59.958;17.726;2023-08-06T00:46:10;12.00;99.90
10431;DHT22;5262;59.958;17.726;2023-08-06T00:48:35;12.00;99.90
10431;DHT22;5262;59.958;17.726;2023-08-06T00:51:01;12.00;99.90
10431;DHT22;5262;59.958;17.726;2023-08-06T00:53:27;11.90;99.90
10431;DHT22;5262;59.958;17.726;2023-08-06T00:55:53;11.90;99.90
10431;DHT22;5262;59.958;17.726;2023-08-06T00:58:19;12.00;99.90
10431;DHT22;5262;59.958;17.726;2023-08-06T01:00:44;12.00;99.90
10431;DHT22;5262;59.958;17.726;2023-08-06T01:03:11;12.00;99.90
10431;DHT22;5262;59.958;17.726;2023-08-06T01:05:36;12.00;99.90
10431;DHT22;5262;59.958;17.726;2023-08-06T01:16:03;12.00;99.90
10431;DHT22;5262;59.958;17.726;2023-08-06T01:18:29;11.80;99.90
10431;DHT22;5262;59.958;17.726;2023-08-06T01:20:54;11.90;99.90
10431;DHT22;5262;59.958;17.726;2023-08-06T01:23:20;11.80;99.90
10431;DHT22;5262;59.958;17.726;2023-08-06T01:28:52;11.80;99.90
10431;DHT22;5262;59.958;17.726;2023-08-06T01:31:35;11.70;99.90
10431;DHT22;5262;59.958;17.726;2023-08-06T01:34:03;11.80;99.90
10431;DHT22;5262;59.958;17.726;2023-08-06T01:36:30;11.70;99.90
10431;DHT22;5262;59.958;17.726;2023-08-06T01:38:56;11.70;99.90
10431;DHT22;5262;59.958;17.726;2023-08-06T01:41:23;11.80;99.90
10431;DHT22;5262;59.958;17.726;2023-08-06T01:43:48;11.70;99.90
10431;DHT22;5262;59.958;17.726;2023-08-06T01:46:14;11.70;99.90
10431;DHT22;5262;59.958;17.726;2023-08-06T01:48:40;11.60;99.90
10431;DHT22;5262;59.958;17.726;2023-08-06T01:51:06;11.60;99.90
10431;DHT22;5262;59.958;17.726;2023-08-06T01:53:32;11.60;99.90
10431;DHT22;5262;59.958;17.726;2023-08-06T01:55:58;11.60;99.90
10431;DHT22;5262;59.958;17.726;2023-08-06T01:58:24;11.50;99.90
10431;DHT22;5262;59.958;17.726;2023-08-06T02:00:49;11.60;99.90
10431;DHT22;5262;59.958;17.726;2023-08-06T02:03:15;11.60;99.90
10431;DHT22;5262;59.958;17.726;2023-08-06T02:05:41;11.60;99.90
10431;DHT22;5262;59.958;17.726;2023-08-06T02:08:06;11.50;99.90
10431;DHT22;5262;59.958;17.726;2023-08-06T02:10:32;11.50;99.90
10431;DHT22;5262;59.958;17.726;2023-08-06T02:12:58;11.40;99.90
10431;DHT22;5262;59.958;17.726;2023-08-06T02:15:23;11.40;99.90
10431;DHT22;5262;59.958;17.726;2023-08-06T02:17:49;11.30;99.90
10431;DHT22;5262;59.958;17.726;2023-08-06T02:20:15;11.30;99.90
10431;DHT22;5262;59.958;17.726;2023-08-06T02:22:40;11.30;99.90
10431;DHT22;5262;59.958;17.726;2023-08-06T02:25:06;11.20;99.90
10431;DHT22;5262;59.958;17.726;2023-08-06T02:27:32;11.20;99.90
10431;DHT22;5262;59.958;17.726;2023-08-06T02:29:57;11.10;99.90
10431;DHT22;5262;59.958;17.726;2023-08-06T02:32:23;11.00;99.90
10431;DHT22;5262;59.958;17.726;2023-08-06T02:34:49;11.00;99.90
10431;DHT22;5262;59.958;17.726;2023-08-06T02:37:14;11.00;99.90
10431;DHT22;5262;59.958;17.726;2023-08-06T02:39:40;11.00;99.90
10431;DHT22;5262;59.958;17.726;2023-08-06T02:42:09;11.00;99.90
10431;DHT22;5262;59.958;17.726;2023-08-06T02:44:35;10.90;99.90
10431;DHT22;5262;59.958;17.726;2023-08-06T02:47:01;11.00;99.90
10431;DHT22;5262;59.958;17.726;2023-08-06T02:49:27;10.90;99.90
10431;DHT22;5262;59.958;17.726;2023-08-06T02:51:52;10.90;99.90
10431;DHT22;5262;59.958;17.726;2023-08-06T02:54:19;10.80;99.90
10431;DHT22;5262;59.958;17.726;2023-08-06T02:56:45;10.80;99.90
10431;DHT22;5262;59.958;17.726;2023-08-06T02:59:14;10.80;99.90
10431;DHT22;5262;59.958;17.726;2023-08-06T03:01:39;10.80;99.90
10431;DHT22;5262;59.958;17.726;2023-08-06T03:04:06;10.80;99.90
10431;DHT22;5262;59.958;17.726;2023-08-06T03:06:34;10.80;99.90
10431;DHT22;5262;59.958;17.726;2023-08-06T03:09:00;10.80;99.90
10431;DHT22;5262;59.958;17.726;2023-08-06T03:11:28;10.80;99.90
10431;DHT22;5262;59.958;17.726;2023-08-06T03:13:53;10.80;99.90
10431;DHT22;5262;59.958;17.726;2023-08-06T03:16:19;10.80;99.90
10431;DHT22;5262;59.958;17.726;2023-08-06T03:18:45;10.80;99.90
10431;DHT22;5262;59.958;17.726;2023-08-06T03:21:10;10.80;99.90
10431;DHT22;5262;59.958;17.726;2023-08-06T03:23:36;10.80;99.90
10431;DHT22;5262;59.958;17.726;2023-08-06T03:26:02;10.80;99.90
10431;DHT22;5262;59.958;17.726;2023-08-06T03:28:28;10.80;99.90
10431;DHT22;5262;59.958;17.726;2023-08-06T03:31:03;10.90;99.90
10431;DHT22;5262;59.958;17.726;2023-08-06T03:33:30;10.90;99.90
10431;DHT22;5262;59.958;17.726;2023-08-06T03:35:55;11.00;99.90
10431;DHT22;5262;59.958;17.726;2023-08-06T03:38:22;11.00;99.90
10431;DHT22;5262;59.958;17.726;2023-08-06T03:40:48;11.10;99.90
10431;DHT22;5262;59.958;17.726;2023-08-06T03:43:14;11.10;99.90
10431;DHT22;5262;59.958;17.726;2023-08-06T03:45:40;11.20;99.90
10431;DHT22;5262;59.958;17.726;2023-08-06T03:48:06;11.20;99.90
10431;DHT22;5262;59.958;17.726;2023-08-06T03:50:32;11.30;99.90
10431;DHT22;5262;59.958;17.726;2023-08-06T03:52:57;11.30;99.90
10431;DHT22;5262;59.958;17.726;2023-08-06T03:55:23;11.30;99.90
10431;DHT22;5262;59.958;17.726;2023-08-06T03:57:49;11.40;99.90
10431;DHT22;5262;59.958;17.726;2023-08-06T04:00:14;11.50;99.90
10431;DHT22;5262;59.958;17.726;2023-08-06T04:02:40;11.50;99.90
10431;DHT22;5262;59.958;17.726;2023-08-06T04:05:06;11.50;99.90
10431;DHT22;5262;59.958;17.726;2023-08-06T04:07:31;11.60;99.90
10431;DHT22;5262;59.958;17.726;2023-08-06T04:10:00;11.60;99.90
10431;DHT22;5262;59.958;17.726;2023-08-06T04:12:27;11.70;99.90
10431;DHT22;5262;59.958;17.726;2023-08-06T04:14:53;11.70;99.90
10431;DHT22;5262;59.958;17.726;2023-08-06T04:17:19;11.80;99.90
10431;DHT22;5262;59.958;17.726;2023-08-06T04:19:53;11.90;99.90
10431;DHT22;5262;59.958;17.726;2023-08-06T04:22:19;12.00;99.90
10431;DHT22;5262;59.958;17.726;2023-08-06T04:24:46;12.10;99.90
10431;DHT22;5262;59.958;17.726;2023-08-06T04:27:12;12.20;99.90
10431;DHT22;5262;59.958;17.726;2023-08-06T04:29:38;12.30;99.90
10431;DHT22;5262;59.958;17.726;2023-08-06T04:32:06;12.40;99.90
10431;DHT22;5262;59.958;17.726;2023-08-06T04:34:32;12.50;99.90
10431;DHT22;5262;59.958;17.726;2023-08-06T04:36:59;12.60;99.90
10431;DHT22;5262;59.958;17.726;2023-08-06T04:39:24;12.70;99.90
10431;DHT22;5262;59.958;17.726;2023-08-06T04:41:50;12.70;99.90
10431;DHT22;5262;59.958;17.726;2023-08-06T04:44:16;12.70;99.90
10431;DHT22;5262;59.958;17.726;2023-08-06T04:46:41;12.90;99.90
10431;DHT22;5262;59.958;17.726;2023-08-06T04:49:07;13.00;99.90
10431;DHT22;5262;59.958;17.726;2023-08-06T04:51:33;13.00;99.90
10431;DHT22;5262;59.958;17.726;2023-08-06T04:53:58;13.10;99.90
10431;DHT22;5262;59.958;17.726;2023-08-06T04:56:24;13.10;99.90
10431;DHT22;5262;59.958;17.726;2023-08-06T04:58:50;13.10;99.90
10431;DHT22;5262;59.958;17.726;2023-08-06T05:01:15;13.20;99.90
10431;DHT22;5262;59.958;17.726;2023-08-06T05:03:41;13.20;99.90
10431;DHT22;5262;59.958;17.726;2023-08-06T05:06:07;13.40;99.90
10431;DHT22;5262;59.958;17.726;2023-08-06T05:08:32;13.50;99.90
10431;DHT22;5262;59.958;17.726;2023-08-06T05:10:58;13.60;99.90
10431;DHT22;5262;59.958;17.726;2023-08-06T05:13:24;13.60;99.90
10431;DHT22;5262;59.958;17.726;2023-08-06T05:15:50;13.80;99.90
10431;DHT22;5262;59.958;17.726;2023-08-06T05:18:16;13.80;99.90
10431;DHT22;5262;59.958;17.726;2023-08-06T05:20:42;13.90;99.90
10431;DHT22;5262;59.958;17.726;2023-08-06T05:23:08;14.00;99.90
10431;DHT22;5262;59.958;17.726;2023-08-06T05:25:35;14.10;99.90
10431;DHT22;5262;59.958;17.726;2023-08-06T05:28:01;14.20;99.90
10431;DHT22;5262;59.958;17.726;2023-08-06T05:30:27;14.40;99.90
10431;DHT22;5262;59.958;17.726;2023-08-06T05:32:53;14.50;99.90
10431;DHT22;5262;59.958;17.726;2023-08-06T05:35:19;14.70;99.90
10431;DHT22;5262;59.958;17.726;2023-08-06T05:37:44;14.80;99.90
10431;DHT22;5262;59.958;17.726;2023-08-06T05:40:10;14.80;99.90
10431;DHT22;5262;59.958;17.726;2023-08-06T05:42:36;14.90;99.90
10431;DHT22;5262;59.958;17.726;2023-08-06T05:45:01;14.90;99.90
10431;DHT22;5262;59.958;17.726;2023-08-06T05:47:27;15.00;99.90
10431;DHT22;5262;59.958;17.726;2023-08-06T05:49:52;15.10;99.90
10431;DHT22;5262;59.958;17.726;2023-08-06T05:52:18;15.20;99.90
10431;DHT22;5262;59.958;17.726;2023-08-06T05:54:44;15.30;99.90
10431;DHT22;5262;59.958;17.726;2023-08-06T05:57:12;15.40;99.90
10431;DHT22;5262;59.958;17.726;2023-08-06T05:59:40;15.60;99.90
10431;DHT22;5262;59.958;17.726;2023-08-06T06:02:06;15.90;99.90
10431;DHT22;5262;59.958;17.726;2023-08-06T06:04:32;16.00;99.90
10431;DHT22;5262;59.958;17.726;2023-08-06T06:06:57;16.10;99.90
10431;DHT22;5262;59.958;17.726;2023-08-06T06:09:23;16.10;99.90
10431;DHT22;5262;59.958;17.726;2023-08-06T06:11:48;16.00;99.90
10431;DHT22;5262;59.958;17.726;2023-08-06T06:14:21;16.00;99.90
10431;DHT22;5262;59.958;17.726;2023-08-06T06:16:47;16.10;99.90
10431;DHT22;5262;59.958;17.726;2023-08-06T06:19:12;16.10;99.90
10431;DHT22;5262;59.958;17.726;2023-08-06T06:21:38;16.30;99.90
10431;DHT22;5262;59.958;17.726;2023-08-06T06:24:05;16.50;99.90
10431;DHT22;5262;59.958;17.726;2023-08-06T06:26:31;16.50;99.90
10431;DHT22;5262;59.958;17.726;2023-08-06T06:28:57;16.80;99.90
10431;DHT22;5262;59.958;17.726;2023-08-06T06:31:23;16.90;99.90
10431;DHT22;5262;59.958;17.726;2023-08-06T06:33:48;17.10;99.90
10431;DHT22;5262;59.958;17.726;2023-08-06T06:36:14;17.40;99.90
10431;DHT22;5262;59.958;17.726;2023-08-06T06:38:39;17.40;99.90
10431;DHT22;5262;59.958;17.726;2023-08-06T06:41:05;17.40;99.90
10431;DHT22;5262;59.958;17.726;2023-08-06T06:43:31;17.50;99.90
10431;DHT22;5262;59.958;17.726;2023-08-06T06:45:57;17.60;99.90
10431;DHT22;5262;59.958;17.726;2023-08-06T06:48:28;17.90;99.90
10431;DHT22;5262;59.958;17.726;2023-08-06T06:50:54;18.10;99.90
10431;DHT22;5262;59.958;17.726;2023-08-06T06:53:19;18.50;99.90
10431;DHT22;5262;59.958;17.726;2023-08-06T06:55:45;18.70;99.90
10431;DHT22;5262;59.958;17.726;2023-08-06T06:58:15;18.70;99.90
10431;DHT22;5262;59.958;17.726;2023-08-06T07:00:41;19.00;99.90
10431;DHT22;5262;59.958;17.726;2023-08-06T07:03:06;19.30;99.90
10431;DHT22;5262;59.958;17.726;2023-08-06T07:05:32;19.20;99.90
10431;DHT22;5262;59.958;17.726;2023-08-06T07:07:58;19.10;99.90
10431;DHT22;5262;59.958;17.726;2023-08-06T07:10:24;19.30;99.90
10431;DHT22;5262;59.958;17.726;2023-08-06T07:12:49;19.50;99.90
10431;DHT22;5262;59.958;17.726;2023-08-06T07:15:15;19.60;99.90
10431;DHT22;5262;59.958;17.726;2023-08-06T07:17:43;19.60;99.90
10431;DHT22;5262;59.958;17.726;2023-08-06T07:20:09;19.50;99.90
10431;DHT22;5262;59.958;17.726;2023-08-06T07:22:34;19.40;99.90
10431;DHT22;5262;59.958;17.726;2023-08-06T07:25:01;19.40;99.90
10431;DHT22;5262;59.958;17.726;2023-08-06T07:27:26;19.40;99.90
10431;DHT22;5262;59.958;17.726;2023-08-06T07:29:52;19.60;99.90
10431;DHT22;5262;59.958;17.726;2023-08-06T07:32:18;19.60;99.90
10431;DHT22;5262;59.958;17.726;2023-08-06T07:34:43;19.70;99.90
10431;DHT22;5262;59.958;17.726;2023-08-06T07:37:09;19.40;99.90
10431;DHT22;5262;59.958;17.726;2023-08-06T07:39:34;19.50;99.90
10431;DHT22;5262;59.958;17.726;2023-08-06T07:42:07;19.30;99.90
10431;DHT22;5262;59.958;17.726;2023-08-06T07:44:33;19.30;99.90
10431;DHT22;5262;59.958;17.726;2023-08-06T07:46:59;19.30;99.90
10431;DHT22;5262;59.958;17.726;2023-08-06T07:49:24;19.40;99.90
10431;DHT22;5262;59.958;17.726;2023-08-06T07:51:50;19.30;99.90
10431;DHT22;5262;59.958;17.726;2023-08-06T07:54:17;19.30;99.90
10431;DHT22;5262;59.958;17.726;2023-08-06T07:56:42;19.40;99.90
10431;DHT22;5262;59.958;17.726;2023-08-06T07:59:08;19.60;99.90
10431;DHT22;5262;59.958;17.726;2023-08-06T08:01:34;19.80;99.90
10431;DHT22;5262;59.958;17.726;2023-08-06T08:04:00;19.70;99.90
10431;DHT22;5262;59.958;17.726;2023-08-06T08:06:26;19.80;99.90
10431;DHT22;5262;59.958;17.726;2023-08-06T08:08:51;19.90;99.90
10431;DHT22;5262;59.958;17.726;2023-08-06T08:11:17;20.10;99.90
10431;DHT22;5262;59.958;17.726;2023-08-06T08:13:44;20.20;99.90
10431;DHT22;5262;59.958;17.726;2023-08-06T08:16:09;20.00;99.90
10431;DHT22;5262;59.958;17.726;2023-08-06T08:18:36;20.10;99.90
10431;DHT22;5262;59.958;17.726;2023-08-06T08:21:01;20.00;99.90
10431;DHT22;5262;59.958;17.726;2023-08-06T08:23:27;20.10;99.90
10431;DHT22;5262;59.958;17.726;2023-08-06T08:25:53;20.00;99.90
10431;DHT22;5262;59.958;17.726;2023-08-06T08:28:19;20.00;99.90
10431;DHT22;5262;59.958;17.726;2023-08-06T08:30:45;20.10;99.90
10431;DHT22;5262;59.958;17.726;2023-08-06T08:33:11;20.20;99.90
10431;DHT22;5262;59.958;17.726;2023-08-06T08:35:37;20.10;99.90
10431;DHT22;5262;59.958;17.726;2023-08-06T08:38:03;20.10;99.90
10431;DHT22;5262;59.958;17.726;2023-08-06T08:40:32;20.00;99.90
10431;DHT22;5262;59.958;17.726;2023-08-06T08:42:59;20.20;99.90
10431;DHT22;5262;59.958;17.726;2023-08-06T08:45:28;20.10;99.90
10431;DHT22;5262;59.958;17.726;2023-08-06T08:47:54;20.20;99.90
10431;DHT22;5262;59.958;17.726;2023-08-06T08:50:21;20.00;99.90
10431;DHT22;5262;59.958;17.726;2023-08-06T08:52:47;20.20;99.90
10431;DHT22;5262;59.958;17.726;2023-08-06T08:55:15;19.90;99.90
10431;DHT22;5262;59.958;17.726;2023-08-06T08:57:42;20.00;99.90
10431;DHT22;5262;59.958;17.726;2023-08-06T09:00:08;20.10;99.90
10431;DHT22;5262;59.958;17.726;2023-08-06T09:02:34;20.20;99.90
10431;DHT22;5262;59.958;17.726;2023-08-06T09:05:01;20.30;99.90
10431;DHT22;5262;59.958;17.726;2023-08-06T09:07:37;20.10;99.90
10431;DHT22;5262;59.958;17.726;2023-08-06T09:10:07;20.10;99.90
10431;DHT22;5262;59.958;17.726;2023-08-06T09:12:35;20.10;99.90
10431;DHT22;5262;59.958;17.726;2023-08-06T09:15:00;20.30;99.90
10431;DHT22;5262;59.958;17.726;2023-08-06T09:17:28;20.30;99.90
10431;DHT22;5262;59.958;17.726;2023-08-06T09:19:54;20.60;99.90
10431;DHT22;5262;59.958;17.726;2023-08-06T09:22:20;20.70;99.90
10431;DHT22;5262;59.958;17.726;2023-08-06T09:24:46;20.60;99.90
10431;DHT22;5262;59.958;17.726;2023-08-06T09:27:15;20.70;99.90
10431;DHT22;5262;59.958;17.726;2023-08-06T09:29:44;20.70;99.90
10431;DHT22;5262;59.958;17.726;2023-08-06T09:32:12;20.50;99.90
10431;DHT22;5262;59.958;17.726;2023-08-06T09:34:45;20.60;99.90
10431;DHT22;5262;59.958;17.726;2023-08-06T09:37:11;20.50;99.90
10431;DHT22;5262;59.958;17.726;2023-08-06T09:39:39;20.60;99.90
10431;DHT22;5262;59.958;17.726;2023-08-06T09:42:06;20.70;99.90
10431;DHT22;5262;59.958;17.726;2023-08-06T09:44:33;20.50;99.90
10431;DHT22;5262;59.958;17.726;2023-08-06T09:47:00;20.40;99.90
10431;DHT22;5262;59.958;17.726;2023-08-06T09:51:58;20.20;99.90
10431;DHT22;5262;59.958;17.726;2023-08-06T09:54:28;20.20;99.90
10431;DHT22;5262;59.958;17.726;2023-08-06T09:56:56;19.90;99.90
10431;DHT22;5262;59.958;17.726;2023-08-06T09:59:25;19.80;99.90
10431;DHT22;5262;59.958;17.726;2023-08-06T10:01:52;19.90;99.90
10431;DHT22;5262;59.958;17.726;2023-08-06T10:04:20;20.00;99.90
10431;DHT22;5262;59.958;17.726;2023-08-06T10:06:48;19.90;99.90
10431;DHT22;5262;59.958;17.726;2023-08-06T10:09:14;20.00;99.90
10431;DHT22;5262;59.958;17.726;2023-08-06T10:11:40;19.90;99.90
10431;DHT22;5262;59.958;17.726;2023-08-06T10:14:13;19.90;99.90
10431;DHT22;5262;59.958;17.726;2023-08-06T10:16:41;19.90;99.90
10431;DHT22;5262;59.958;17.726;2023-08-06T10:19:09;20.00;99.90
10431;DHT22;5262;59.958;17.726;2023-08-06T10:21:37;19.80;99.90
10431;DHT22;5262;59.958;17.726;2023-08-06T10:24:07;20.00;99.90
10431;DHT22;5262;59.958;17.726;2023-08-06T10:26:35;19.80;99.90
10431;DHT22;5262;59.958;17.726;2023-08-06T10:29:00;19.80;99.90
10431;DHT22;5262;59.958;17.726;2023-08-06T10:31:54;19.80;99.90
10431;DHT22;5262;59.958;17.726;2023-08-06T10:34:21;19.60;99.90
10431;DHT22;5262;59.958;17.726;2023-08-06T10:36:46;19.80;99.90
10431;DHT22;5262;59.958;17.726;2023-08-06T10:39:15;19.70;99.90
10431;DHT22;5262;59.958;17.726;2023-08-06T10:41:42;19.60;99.90
10431;DHT22;5262;59.958;17.726;2023-08-06T10:44:10;19.70;99.90
10431;DHT22;5262;59.958;17.726;2023-08-06T10:46:37;19.60;99.90
10431;DHT22;5262;59.958;17.726;2023-08-06T10:49:04;19.50;99.90
10431;DHT22;5262;59.958;17.726;2023-08-06T10:51:30;19.30;99.90
10431;DHT22;5262;59.958;17.726;2023-08-06T10:53:56;19.40;99.90
10431;DHT22;5262;59.958;17.726;2023-08-06T10:56:24;19.50;99.90
10431;DHT22;5262;59.958;17.726;2023-08-06T10:58:56;19.50;99.90
10431;DHT22;5262;59.958;17.726;2023-08-06T11:01:23;19.50;99.90
10431;DHT22;5262;59.958;17.726;2023-08-06T11:03:51;19.40;99.90
10431;DHT22;5262;59.958;17.726;2023-08-06T11:06:19;19.30;99.90
10431;DHT22;5262;59.958;17.726;2023-08-06T11:08:50;19.20;99.90
10431;DHT22;5262;59.958;17.726;2023-08-06T11:11:17;19.30;99.90
10431;DHT22;5262;59.958;17.726;2023-08-06T11:13:45;19.30;99.90
10431;DHT22;5262;59.958;17.726;2023-08-06T11:16:13;19.30;99.90
10431;DHT22;5262;59.958;17.726;2023-08-06T11:18:40;19.40;99.90
10431;DHT22;5262;59.958;17.726;2023-08-06T11:21:05;19.30;99.90
10431;DHT22;5262;59.958;17.726;2023-08-06T11:23:34;19.30;99.90
10431;DHT22;5262;59.958;17.726;2023-08-06T11:26:00;19.20;99.90
10431;DHT22;5262;59.958;17.726;2023-08-06T11:28:25;19.10;99.90
10431;DHT22;5262;59.958;17.726;2023-08-06T11:30:51;19.20;99.90
10431;DHT22;5262;59.958;17.726;2023-08-06T11:33:35;19.10;99.90
10431;DHT22;5262;59.958;17.726;2023-08-06T11:36:01;19.00;99.90
10431;DHT22;5262;59.958;17.726;2023-08-06T11:38:28;19.10;99.90
10431;DHT22;5262;59.958;17.726;2023-08-06T11:40:54;19.10;99.90
10431;DHT22;5262;59.958;17.726;2023-08-06T11:43:20;19.10;99.90
10431;DHT22;5262;59.958;17.726;2023-08-06T11:45:50;19.10;99.90
10431;DHT22;5262;59.958;17.726;2023-08-06T11:48:16;19.00;99.90
10431;DHT22;5262;59.958;17.726;2023-08-06T11:50:43;18.90;99.90
10431;DHT22;5262;59.958;17.726;2023-08-06T11:53:12;18.80;99.90
10431;DHT22;5262;59.958;17.726;2023-08-06T11:55:38;18.70;99.90
10431;DHT22;5262;59.958;17.726;2023-08-06T11:58:04;18.50;99.90
10431;DHT22;5262;59.958;17.726;2023-08-06T12:00:30;18.40;99.90
10431;DHT22;5262;59.958;17.726;2023-08-06T12:02:56;18.30;99.90
10431;DHT22;5262;59.958;17.726;2023-08-06T12:05:23;18.20;99.90
10431;DHT22;5262;59.958;17.726;2023-08-06T12:07:57;18.20;99.90
10431;DHT22;5262;59.958;17.726;2023-08-06T12:10:25;18.20;99.90
10431;DHT22;5262;59.958;17.726;2023-08-06T12:12:51;18.10;99.90
10431;DHT22;5262;59.958;17.726;2023-08-06T12:15:18;18.00;99.90
10431;DHT22;5262;59.958;17.726;2023-08-06T12:17:43;17.80;99.90
10431;DHT22;5262;59.958;17.726;2023-08-06T12:20:10;17.80;99.90
10431;DHT22;5262;59.958;17.726;2023-08-06T12:22:36;17.70;99.90
10431;DHT22;5262;59.958;17.726;2023-08-06T12:25:05;17.70;99.90
10431;DHT22;5262;59.958;17.726;2023-08-06T12:27:35;17.60;99.90
10431;DHT22;5262;59.958;17.726;2023-08-06T12:30:01;17.60;99.90
10431;DHT22;5262;59.958;17.726;2023-08-06T12:32:26;17.60;99.90
10431;DHT22;5262;59.958;17.726;2023-08-06T12:34:52;17.60;99.90
10431;DHT22;5262;59.958;17.726;2023-08-06T12:37:18;17.60;99.90
10431;DHT22;5262;59.958;17.726;2023-08-06T12:39:43;17.50;99.90
10431;DHT22;5262;59.958;17.726;2023-08-06T12:42:09;17.50;99.90
10431;DHT22;5262;59.958;17.726;2023-08-06T12:44:36;17.50;99.90
10431;DHT22;5262;59.958;17.726;2023-08-06T12:47:01;17.30;99.90
10431;DHT22;5262;59.958;17.726;2023-08-06T12:49:27;17.20;99.90
10431;DHT22;5262;59.958;17.726;2023-08-06T12:51:54;17.00;99.90
10431;DHT22;5262;59.958;17.726;2023-08-06T12:54:22;16.90;99.90
10431;DHT22;5262;59.958;17.726;2023-08-06T12:56:48;16.80;99.90
10431;DHT22;5262;59.958;17.726;2023-08-06T12:59:17;16.70;99.90
10431;DHT22;5262;59.958;17.726;2023-08-06T13:01:44;16.70;99.90
10431;DHT22;5262;59.958;17.726;2023-08-06T13:04:09;16.60;99.90
10431;DHT22;5262;59.958;17.726;2023-08-06T13:06:36;16.50;99.90
10431;DHT22;5262;59.958;17.726;2023-08-06T13:09:12;16.50;99.90
10431;DHT22;5262;59.958;17.726;2023-08-06T13:11:39;16.50;99.90
10431;DHT22;5262;59.958;17.726;2023-08-06T13:16:32;16.50;99.90
10431;DHT22;5262;59.958;17.726;2023-08-06T13:18:58;16.40;99.90
10431;DHT22;5262;59.958;17.726;2023-08-06T13:21:24;16.40;99.90
10431;DHT22;5262;59.958;17.726;2023-08-06T13:23:49;16.40;99.90
10431;DHT22;5262;59.958;17.726;2023-08-06T13:26:15;16.40;99.90
10431;DHT22;5262;59.958;17.726;2023-08-06T13:28:41;16.30;99.90
10431;DHT22;5262;59.958;17.726;2023-08-06T13:31:07;16.40;99.90
10431;DHT22;5262;59.958;17.726;2023-08-06T13:33:33;16.40;99.90
10431;DHT22;5262;59.958;17.726;2023-08-06T13:35:58;16.30;99.90
10431;DHT22;5262;59.958;17.726;2023-08-06T13:38:24;16.30;99.90
10431;DHT22;5262;59.958;17.726;2023-08-06T13:40:49;16.20;99.90
10431;DHT22;5262;59.958;17.726;2023-08-06T13:43:15;16.10;99.90
10431;DHT22;5262;59.958;17.726;2023-08-06T13:45:42;16.10;99.90
10431;DHT22;5262;59.958;17.726;2023-08-06T13:48:08;16.10;99.90
10431;DHT22;5262;59.958;17.726;2023-08-06T13:50:36;16.00;99.90
10431;DHT22;5262;59.958;17.726;2023-08-06T13:53:02;16.00;99.90
10431;DHT22;5262;59.958;17.726;2023-08-06T13:55:27;16.00;99.90
10431;DHT22;5262;59.958;17.726;2023-08-06T13:57:53;16.00;99.90
10431;DHT22;5262;59.958;17.726;2023-08-06T14:00:19;16.00;99.90
10431;DHT22;5262;59.958;17.726;2023-08-06T14:02:44;16.00;99.90
10431;DHT22;5262;59.958;17.726;2023-08-06T14:05:10;16.00;99.90
10431;DHT22;5262;59.958;17.726;2023-08-06T14:07:36;16.00;99.90
10431;DHT22;5262;59.958;17.726;2023-08-06T14:10:02;16.00;99.90
10431;DHT22;5262;59.958;17.726;2023-08-06T14:12:27;15.90;99.90
10431;DHT22;5262;59.958;17.726;2023-08-06T14:14:53;15.90;99.90
10431;DHT22;5262;59.958;17.726;2023-08-06T14:17:19;15.90;99.90
10431;DHT22;5262;59.958;17.726;2023-08-06T14:19:44;15.80;99.90
10431;DHT22;5262;59.958;17.726;2023-08-06T14:22:10;15.80;99.90
10431;DHT22;5262;59.958;17.726;2023-08-06T14:24:36;15.90;99.90
10431;DHT22;5262;59.958;17.726;2023-08-06T14:27:02;15.80;99.90
10431;DHT22;5262;59.958;17.726;2023-08-06T14:29:29;15.80;99.90
10431;DHT22;5262;59.958;17.726;2023-08-06T14:31:55;15.80;99.90
10431;DHT22;5262;59.958;17.726;2023-08-06T14:34:20;15.90;99.90
10431;DHT22;5262;59.958;17.726;2023-08-06T14:36:46;15.80;99.90
10431;DHT22;5262;59.958;17.726;2023-08-06T14:39:12;15.80;99.90
10431;DHT22;5262;59.958;17.726;2023-08-06T14:41:37;15.90;99.90
10431;DHT22;5262;59.958;17.726;2023-08-06T14:44:03;15.90;99.90
10431;DHT22;5262;59.958;17.726;2023-08-06T14:46:29;15.80;99.90
10431;DHT22;5262;59.958;17.726;2023-08-06T14:48:54;15.80;99.90
10431;DHT22;5262;59.958;17.726;2023-08-06T14:51:20;15.80;99.90
10431;DHT22;5262;59.958;17.726;2023-08-06T14:53:46;15.90;99.90
10431;DHT22;5262;59.958;17.726;2023-08-06T14:56:11;15.90;99.90
10431;DHT22;5262;59.958;17.726;2023-08-06T14:58:37;15.90;99.90
10431;DHT22;5262;59.958;17.726;2023-08-06T15:01:03;15.90;99.90
10431;DHT22;5262;59.958;17.726;2023-08-06T15:03:28;15.90;99.90
10431;DHT22;5262;59.958;17.726;2023-08-06T15:05:54;15.90;99.90
10431;DHT22;5262;59.958;17.726;2023-08-06T15:08:19;15.90;99.90
10431;DHT22;5262;59.958;17.726;2023-08-06T15:10:52;15.90;99.90
10431;DHT22;5262;59.958;17.726;2023-08-06T15:13:19;15.80;99.90
10431;DHT22;5262;59.958;17.726;2023-08-06T15:15:47;15.80;99.90
10431;DHT22;5262;59.958;17.726;2023-08-06T15:18:12;15.70;99.90
10431;DHT22;5262;59.958;17.726;2023-08-06T15:20:38;15.80;99.90
10431;DHT22;5262;59.958;17.726;2023-08-06T15:23:04;15.80;99.90
10431;DHT22;5262;59.958;17.726;2023-08-06T15:25:30;15.80;99.90
10431;DHT22;5262;59.958;17.726;2023-08-06T15:27:55;15.80;99.90
10431;DHT22;5262;59.958;17.726;2023-08-06T15:30:21;15.80;99.90
10431;DHT22;5262;59.958;17.726;2023-08-06T15:32:47;15.80;99.90
10431;DHT22;5262;59.958;17.726;2023-08-06T15:35:13;15.80;99.90
10431;DHT22;5262;59.958;17.726;2023-08-06T15:37:39;15.70;99.90
10431;DHT22;5262;59.958;17.726;2023-08-06T15:40:06;15.70;99.90
10431;DHT22;5262;59.958;17.726;2023-08-06T15:42:32;15.80;99.90